Time;durP1;ratioP1;P1;durP2;ratioP2;P2;SDS_P1;SDS_P2;PMS_P1;PMS_P2;Temp;Humidity;BMP_temperature;BMP_pressure;BME280_temperature;BME280_humidity;BME280_pressure;Samples;Min_cycle;Max_cycle;Signal;HPM_P1;HPM_P2
2023/07/11 00:01:24;;;;;;;0.97;0.97;;;;;;;21.67;71.22;95723.72;5094658;28;20441;-64
2023/07/11 00:03:54;;;;;;;0.40;0.20;;;;;;;21.78;71.01;95736.47;5094921;28;20502;-65
2023/07/11 00:06:22;;;;;;;0.40;0.30;;;;;;;21.72;71.33;95737.03;5094881;28;21004;-65
2023/07/11 00:08:50;;;;;;;0.50;0.30;;;;;;;21.79;71.14;95734.59;5094919;28;20490;-65
2023/07/11 00:11:19;;;;;;;0.40;0.20;;;;;;;21.86;71.83;95740.25;5094323;28;20519;-65
2023/07/11 00:13:49;;;;;;;0.43;0.30;;;;;;;21.88;73.05;95732.66;5094948;28;20520;-65
2023/07/11 00:16:19;;;;;;;0.50;0.40;;;;;;;21.89;72.23;95743.09;5094795;28;20443;-65
2023/07/11 00:18:48;;;;;;;0.60;0.40;;;;;;;21.87;71.63;95737.25;5094300;28;20445;-64
2023/07/11 00:21:18;;;;;;;0.40;0.30;;;;;;;21.84;71.82;95734.38;5094679;28;20440;-65
2023/07/11 00:23:46;;;;;;;1.27;0.50;;;;;;;21.83;71.40;95736.28;5094399;28;20468;-65
2023/07/11 00:26:15;;;;;;;0.40;0.30;;;;;;;21.69;71.42;95721.47;5094579;28;20524;-65
2023/07/11 00:28:43;;;;;;;0.90;0.77;;;;;;;21.43;72.25;95737.84;5093783;28;20864;-64
2023/07/11 00:31:11;;;;;;;0.50;0.40;;;;;;;21.22;72.05;95731.66;5095000;28;20444;-65
2023/07/11 00:33:40;;;;;;;0.60;0.30;;;;;;;21.33;72.35;95733.63;5093733;28;20816;-65
2023/07/11 00:36:09;;;;;;;0.63;0.60;;;;;;;21.44;71.64;95737.53;5094568;28;20471;-66
2023/07/11 00:38:39;;;;;;;0.50;0.30;;;;;;;20.87;74.05;95733.72;5093620;28;20941;-65
2023/07/11 00:41:07;;;;;;;0.40;0.30;;;;;;;20.79;74.91;95710.28;5093969;28;20949;-66
2023/07/11 00:43:36;;;;;;;0.50;0.33;;;;;;;21.21;73.57;95730.88;5093598;28;20483;-65
2023/07/11 00:46:13;;;;;;;1.03;0.60;;;;;;;21.17;73.52;95697.59;5094288;28;20437;-66
2023/07/11 00:48:47;;;;;;;0.80;0.30;;;;;;;21.44;72.24;95721.34;5093967;28;20428;-66
2023/07/11 00:51:21;;;;;;;0.60;0.40;;;;;;;21.44;71.95;95726.75;5094058;28;20437;-65
2023/07/11 00:53:52;;;;;;;0.50;0.40;;;;;;;21.46;72.04;95721.81;5094356;28;20452;-65
2023/07/11 00:56:25;;;;;;;0.40;0.33;;;;;;;21.22;73.03;95693.91;5093642;28;20980;-65
2023/07/11 00:58:56;;;;;;;0.40;0.20;;;;;;;21.27;72.43;95712.59;5093444;28;20480;-66
2023/07/11 01:01:25;;;;;;;0.50;0.30;;;;;;;21.19;72.65;95714.22;5093730;28;20589;-65
2023/07/11 01:03:55;;;;;;;0.60;0.30;;;;;;;21.24;71.39;95719.44;5094119;28;20468;-66
2023/07/11 01:06:27;;;;;;;0.50;0.30;;;;;;;21.26;70.55;95709.09;5093193;28;20466;-66
2023/07/11 01:08:58;;;;;;;0.40;0.30;;;;;;;20.88;71.24;95687.56;5093565;28;20441;-66
2023/07/11 01:11:29;;;;;;;1.70;0.40;;;;;;;21.22;70.73;95734.34;5093475;28;21140;-65
2023/07/11 01:13:58;;;;;;;0.50;0.30;;;;;;;21.01;72.01;95722.69;5079827;28;20441;-66
2023/07/11 01:16:27;;;;;;;0.40;0.30;;;;;;;20.82;71.84;95726.59;5093524;28;20523;-66
2023/07/11 01:18:55;;;;;;;0.53;0.30;;;;;;;21.00;70.87;95729.22;5093580;28;20570;-66
2023/07/11 01:21:25;;;;;;;0.40;0.20;;;;;;;20.96;71.89;95731.75;5093367;28;20444;-66
2023/07/11 01:23:53;;;;;;;0.50;0.30;;;;;;;21.07;68.30;95726.81;5093000;28;21067;-66
2023/07/11 01:26:24;;;;;;;0.40;0.30;;;;;;;21.13;70.40;95725.50;5093444;28;20448;-66
2023/07/11 01:28:52;;;;;;;0.40;0.30;;;;;;;21.16;70.20;95732.94;5093489;28;20533;-65
2023/07/11 01:31:20;;;;;;;0.43;0.30;;;;;;;21.13;70.53;95728.19;5116232;28;20463;-67
2023/07/11 01:33:49;;;;;;;0.50;0.30;;;;;;;21.14;70.88;95730.59;5093949;28;20468;-66
2023/07/11 01:36:17;;;;;;;0.40;0.30;;;;;;;21.10;70.84;95724.25;5092937;28;20789;-67
2023/07/11 01:38:47;;;;;;;0.87;0.33;;;;;;;21.06;71.31;95727.94;5092962;28;20453;-66
2023/07/11 01:41:15;;;;;;;0.50;0.30;;;;;;;20.67;71.39;95723.66;5093085;28;20437;-66
2023/07/11 01:43:44;;;;;;;1.53;0.30;;;;;;;20.75;72.14;95723.59;5079276;28;21049;-66
2023/07/11 01:46:12;;;;;;;0.70;0.50;;;;;;;20.78;71.52;95722.97;5080697;28;20446;-66
2023/07/11 01:48:41;;;;;;;0.50;0.43;;;;;;;20.80;71.80;95723.44;5091658;28;20940;-66
2023/07/11 01:51:09;;;;;;;0.40;0.30;;;;;;;20.45;73.20;95726.56;5091586;28;20441;-66
2023/07/11 01:53:37;;;;;;;0.40;0.30;;;;;;;20.64;74.20;95730.47;5092225;28;20470;-66
2023/07/11 01:56:07;;;;;;;0.50;0.30;;;;;;;20.64;73.47;95729.69;5093012;28;20529;-66
2023/07/11 01:58:38;;;;;;;0.60;0.60;;;;;;;20.51;73.69;95731.47;5067842;28;20476;-66
2023/07/11 02:01:06;;;;;;;0.40;0.30;;;;;;;20.63;73.88;95728.09;5092241;28;20441;-67
2023/07/11 02:03:34;;;;;;;0.60;0.47;;;;;;;20.71;73.13;95738.06;5092347;28;20444;-66
2023/07/11 02:06:03;;;;;;;0.70;0.40;;;;;;;20.20;73.61;95739.75;5091949;28;20444;-67
2023/07/11 02:08:32;;;;;;;0.53;0.43;;;;;;;20.19;74.57;95743.53;5092778;28;20968;-67
2023/07/11 02:11:00;;;;;;;0.40;0.30;;;;;;;20.45;73.77;95737.34;5092143;28;20993;-67
2023/07/11 02:13:30;;;;;;;0.50;0.40;;;;;;;20.39;74.74;95739.41;5092238;28;20944;-67
2023/07/11 02:15:59;;;;;;;0.50;0.40;;;;;;;20.48;73.64;95734.00;5092092;28;20436;-66
2023/07/11 02:18:27;;;;;;;0.50;0.30;;;;;;;20.47;74.29;95732.41;5092662;28;20433;-67
2023/07/11 02:20:57;;;;;;;0.40;0.30;;;;;;;20.21;74.20;95744.00;5092184;28;20467;-67
2023/07/11 02:23:25;;;;;;;0.80;0.43;;;;;;;20.31;75.55;95745.63;5092769;28;20445;-69
2023/07/11 02:25:54;;;;;;;0.40;0.30;;;;;;;20.49;75.80;95744.44;5092262;28;20899;-67
2023/07/11 02:28:23;;;;;;;0.40;0.30;;;;;;;20.52;74.55;95743.00;5092018;28;20973;-67
2023/07/11 02:30:53;;;;;;;0.40;0.30;;;;;;;20.49;75.69;95739.06;5091754;28;20455;-67
2023/07/11 02:33:21;;;;;;;0.63;0.37;;;;;;;20.21;75.20;95744.00;5091818;28;20433;-66
2023/07/11 02:35:50;;;;;;;0.70;0.40;;;;;;;20.41;73.88;95745.28;5066403;28;20487;-67
2023/07/11 02:38:18;;;;;;;0.50;0.30;;;;;;;20.10;75.04;95747.34;5091365;28;20444;-66
2023/07/11 02:40:46;;;;;;;0.50;0.50;;;;;;;20.27;73.90;95758.91;5092123;28;20464;-68
2023/07/11 02:43:16;;;;;;;0.47;0.30;;;;;;;20.20;73.80;95755.91;5091239;28;20478;-67
2023/07/11 02:45:44;;;;;;;0.50;0.30;;;;;;;20.20;75.09;95753.19;5092032;28;20483;-67
2023/07/11 02:48:14;;;;;;;0.40;0.30;;;;;;;20.35;73.18;95743.84;5091761;28;20960;-67
2023/07/11 02:50:42;;;;;;;0.40;0.30;;;;;;;20.25;72.67;95738.81;5092192;28;20518;-67
2023/07/11 02:53:12;;;;;;;0.40;0.20;;;;;;;20.25;72.49;95736.91;5091572;28;20445;-66
2023/07/11 02:55:40;;;;;;;0.40;0.30;;;;;;;20.36;74.03;95744.66;5091665;28;20969;-67
2023/07/11 02:58:08;;;;;;;0.40;0.30;;;;;;;20.43;74.24;95743.06;5091784;28;20456;-66
2023/07/11 03:00:37;;;;;;;0.70;0.70;;;;;;;20.31;74.86;95736.75;5091741;28;20437;-67
2023/07/11 03:03:06;;;;;;;0.50;0.30;;;;;;;20.11;75.52;95747.03;5090926;28;20941;-67
2023/07/11 03:05:42;;;;;;;0.40;0.30;;;;;;;20.23;74.21;95744.53;5091092;28;20484;-66
2023/07/11 03:08:10;;;;;;;1.10;0.60;;;;;;;20.20;73.51;95750.50;5091700;28;20494;-67
2023/07/11 03:10:39;;;;;;;0.93;0.43;;;;;;;20.25;73.15;95750.38;5091494;28;20486;-67
2023/07/11 03:13:07;;;;;;;0.90;0.30;;;;;;;20.24;73.14;95751.47;5065450;28;20938;-67
2023/07/11 03:15:36;;;;;;;0.40;0.30;;;;;;;20.28;72.35;95757.03;5091337;28;20437;-66
2023/07/11 03:18:05;;;;;;;0.80;0.50;;;;;;;20.27;71.65;95756.22;5091067;28;20824;-68
2023/07/11 03:20:38;;;;;;;0.50;0.50;;;;;;;19.64;75.97;95756.06;5090980;28;20448;-67
2023/07/11 03:23:08;;;;;;;0.40;0.20;;;;;;;19.50;78.33;95761.59;5091412;28;20441;-66
2023/07/11 03:25:37;;;;;;;0.80;0.50;;;;;;;19.82;77.22;95757.66;5091457;28;20475;-67
2023/07/11 03:28:05;;;;;;;0.50;0.30;;;;;;;19.45;80.75;95766.34;5090747;28;20441;-66
2023/07/11 03:30:35;;;;;;;0.50;0.40;;;;;;;19.84;77.86;95766.19;5091371;28;20440;-66
2023/07/11 03:33:04;;;;;;;0.40;0.30;;;;;;;20.04;76.35;95749.41;5091740;28;20445;-66
2023/07/11 03:35:34;;;;;;;0.50;0.40;;;;;;;19.99;78.27;95754.97;5090945;28;20620;-67
2023/07/11 03:38:04;;;;;;;0.40;0.30;;;;;;;20.19;78.20;95761.56;5091322;28;20448;-67
2023/07/11 03:40:33;;;;;;;0.57;0.40;;;;;;;20.20;78.06;95752.41;5090774;28;20441;-66
2023/07/11 03:43:01;;;;;;;0.40;0.30;;;;;;;20.27;77.67;95764.28;5107050;28;20445;-67
2023/07/11 03:45:30;;;;;;;0.47;0.30;;;;;;;20.32;76.45;95767.91;5098244;28;20529;-65
2023/07/11 03:47:58;;;;;;;0.70;0.30;;;;;;;20.30;76.14;95767.47;5091614;28;20808;-66
2023/07/11 03:50:26;;;;;;;0.50;0.30;;;;;;;20.29;76.98;95765.91;5065209;28;20432;-75
2023/07/11 03:52:55;;;;;;;0.60;0.40;;;;;;;20.50;78.67;95767.56;5086144;28;20457;-78
2023/07/11 03:55:24;;;;;;;0.40;0.30;;;;;;;20.52;73.50;95768.03;5091548;28;20940;-79
2023/07/11 03:57:53;;;;;;;1.37;0.53;;;;;;;20.32;74.19;95779.50;5090906;28;20436;-78
2023/07/11 04:00:21;;;;;;;0.57;0.43;;;;;;;20.50;74.07;95774.84;5091100;28;20468;-80
2023/07/11 04:02:50;;;;;;;0.50;0.37;;;;;;;20.42;75.18;95775.66;5091389;28;20448;-79
2023/07/11 04:05:19;;;;;;;0.47;0.40;;;;;;;20.35;73.40;95778.06;5091163;28;20467;-79
2023/07/11 04:07:47;;;;;;;0.50;0.30;;;;;;;20.30;73.09;95765.56;5090905;28;20498;-76
2023/07/11 04:10:15;;;;;;;0.50;0.47;;;;;;;20.40;72.24;95781.38;5091237;28;20816;-77
2023/07/11 04:12:45;;;;;;;0.70;0.70;;;;;;;20.35;72.85;95780.75;5091098;28;20842;-77
2023/07/11 04:15:14;;;;;;;0.50;0.40;;;;;;;20.05;73.54;95787.88;5093960;28;21023;-75
2023/07/11 04:17:42;;;;;;;0.40;0.30;;;;;;;19.94;74.00;95787.41;5094968;28;20813;-74
2023/07/11 04:20:12;;;;;;;0.50;0.50;;;;;;;19.45;75.67;95790.53;5095458;28;20859;-74
2023/07/11 04:22:40;;;;;;;0.50;0.40;;;;;;;19.15;76.65;95784.06;5094792;28;20799;-74
2023/07/11 04:25:09;;;;;;;0.50;0.33;;;;;;;19.58;75.59;95785.00;5095124;28;20558;-73
2023/07/11 04:27:37;;;;;;;2.17;0.50;;;;;;;19.94;75.15;95792.00;5094600;28;20498;-74
2023/07/11 04:30:09;;;;;;;0.67;0.30;;;;;;;20.38;75.95;95790.88;5094824;28;20444;-73
2023/07/11 04:32:37;;;;;;;0.97;0.40;;;;;;;20.37;79.90;95783.91;5068975;28;21017;-75
2023/07/11 04:35:11;;;;;;;1.10;0.50;;;;;;;20.43;75.75;95783.44;5094716;28;20474;-71
2023/07/11 04:37:40;;;;;;;0.40;0.40;;;;;;;20.42;76.61;95789.13;5094153;28;20435;-72
2023/07/11 04:40:10;;;;;;;0.50;0.30;;;;;;;20.48;74.31;95785.16;5094228;28;20490;-72
2023/07/11 04:42:38;;;;;;;0.40;0.30;;;;;;;20.49;74.66;95789.44;5084266;28;20498;-73
2023/07/11 04:45:09;;;;;;;0.60;0.50;;;;;;;20.64;74.60;95791.63;5091184;28;20503;-76
2023/07/11 04:47:38;;;;;;;0.50;0.40;;;;;;;19.92;79.34;95788.81;5093612;28;20455;-74
2023/07/11 04:50:07;;;;;;;0.67;0.67;;;;;;;19.96;78.78;95800.56;5094204;28;20432;-74
2023/07/11 04:52:35;;;;;;;0.50;0.30;;;;;;;20.07;78.82;95791.84;5092760;28;20573;-76
2023/07/11 04:55:04;;;;;;;0.60;0.60;;;;;;;19.83;80.70;95807.69;5094597;28;20476;-76
2023/07/11 04:57:32;;;;;;;0.50;0.37;;;;;;;20.16;78.26;95806.06;5094677;28;20437;-71
2023/07/11 05:00:01;;;;;;;0.60;0.60;;;;;;;19.97;78.64;95810.19;5093990;28;21137;-74
2023/07/11 05:02:31;;;;;;;0.50;0.47;;;;;;;20.46;77.71;95807.03;5094495;28;20835;-68
2023/07/11 05:04:59;;;;;;;0.50;0.30;;;;;;;20.81;75.85;95810.44;5093802;28;20494;-71
2023/07/11 05:07:27;;;;;;;0.60;0.40;;;;;;;20.81;74.57;95810.44;5093346;28;20877;-70
2023/07/11 05:09:56;;;;;;;0.70;0.40;;;;;;;20.87;74.83;95804.53;5093573;28;20441;-70
2023/07/11 05:12:27;;;;;;;0.50;0.37;;;;;;;20.97;74.43;95803.41;5093493;28;20476;-69
2023/07/11 05:14:56;;;;;;;0.50;0.40;;;;;;;21.13;73.97;95795.59;5093965;28;20482;-69
2023/07/11 05:17:24;;;;;;;0.57;0.30;;;;;;;21.34;72.19;95802.63;5093557;28;20463;-67
2023/07/11 05:19:54;;;;;;;0.40;0.30;;;;;;;21.56;70.83;95808.84;5093674;28;20440;-67
2023/07/11 05:22:22;;;;;;;0.50;0.40;;;;;;;21.88;70.28;95794.72;5093374;28;20437;-66
2023/07/11 05:24:51;;;;;;;1.53;0.30;;;;;;;21.99;69.14;95801.28;5093334;28;20436;-65
2023/07/11 05:27:19;;;;;;;0.70;0.33;;;;;;;22.20;68.57;95799.38;5092400;28;21053;-64
2023/07/11 05:29:47;;;;;;;0.40;0.30;;;;;;;22.43;68.08;95800.59;5093519;28;20948;-64
2023/07/11 05:32:16;;;;;;;0.50;0.40;;;;;;;22.49;67.56;95803.88;5092980;28;20831;-63
2023/07/11 05:34:44;;;;;;;0.70;0.40;;;;;;;22.54;68.17;95801.75;5093196;28;20495;-63
2023/07/11 05:37:14;;;;;;;0.40;0.30;;;;;;;22.81;66.64;95805.81;5093066;28;20495;-62
2023/07/11 05:39:42;;;;;;;0.70;0.70;;;;;;;22.72;66.45;95808.59;5093183;28;20537;-62
2023/07/11 05:42:11;;;;;;;0.40;0.30;;;;;;;22.77;64.49;95800.28;5092918;28;20441;-61
2023/07/11 05:44:39;;;;;;;0.50;0.30;;;;;;;23.28;64.18;95804.28;5092431;28;20502;-62
2023/07/11 05:47:07;;;;;;;0.50;0.33;;;;;;;23.49;63.17;95792.59;5093039;28;20553;-61
2023/07/11 05:49:36;;;;;;;0.40;0.30;;;;;;;23.31;61.41;95795.50;5092383;28;20990;-59
2023/07/11 05:52:05;;;;;;;0.63;0.50;;;;;;;23.38;62.82;95794.94;5092590;28;21014;-60
2023/07/11 05:54:35;;;;;;;0.60;0.40;;;;;;;23.06;61.78;95785.00;5093384;28;20437;-59
2023/07/11 05:57:03;;;;;;;0.63;0.63;;;;;;;23.03;62.13;95778.34;5097898;28;20444;-58
2023/07/11 05:59:32;;;;;;;0.90;0.40;;;;;;;23.46;60.87;95767.00;5096458;28;20899;-59
2023/07/11 06:02:00;;;;;;;0.40;0.40;;;;;;;24.07;60.98;95767.66;5086787;28;20444;-58
2023/07/11 06:04:29;;;;;;;0.50;0.30;;;;;;;24.27;59.52;95765.91;5092434;28;20524;-59
2023/07/11 06:06:57;;;;;;;0.63;0.43;;;;;;;24.44;60.71;95769.09;5092003;28;20537;-58
2023/07/11 06:09:26;;;;;;;1.57;1.10;;;;;;;24.11;59.52;95770.50;5092539;28;20512;-59
2023/07/11 06:11:55;;;;;;;0.50;0.50;;;;;;;24.38;59.98;95761.59;5092477;28;20449;-58
2023/07/11 06:14:24;;;;;;;0.80;0.40;;;;;;;24.35;59.23;95767.69;5092467;28;20444;-58
2023/07/11 06:16:52;;;;;;;1.67;1.57;;;;;;;24.09;61.29;95768.13;5092197;28;20472;-58
2023/07/11 06:19:21;;;;;;;0.60;0.50;;;;;;;24.54;60.98;95757.75;5091717;28;20517;-57
2023/07/11 06:21:49;;;;;;;1.23;1.13;;;;;;;24.64;60.56;95770.81;5092462;28;20459;-57
2023/07/11 06:24:17;;;;;;;0.83;0.77;;;;;;;24.63;61.66;95768.44;5092290;28;20471;-57
2023/07/11 06:26:46;;;;;;;1.00;1.00;;;;;;;24.18;61.16;95770.69;5092359;28;20476;-57
2023/07/11 06:29:16;;;;;;;1.37;1.27;;;;;;;24.53;60.57;95760.84;5092448;28;20455;-57
2023/07/11 06:31:45;;;;;;;1.27;0.87;;;;;;;25.04;60.82;95759.88;5092302;28;20470;-56
2023/07/11 06:34:14;;;;;;;0.83;0.83;;;;;;;24.84;59.26;95757.41;5092346;28;20440;-57
2023/07/11 06:36:42;;;;;;;0.40;0.40;;;;;;;25.44;60.57;95762.38;5091347;28;20509;-61
2023/07/11 06:39:10;;;;;;;1.50;0.70;;;;;;;25.21;58.35;95754.06;5092517;28;20437;-61
2023/07/11 06:41:39;;;;;;;2.33;0.77;;;;;;;25.39;58.06;95750.97;5089264;28;20929;-62
2023/07/11 06:44:08;;;;;;;0.67;0.67;;;;;;;25.47;59.13;95756.25;5081611;28;20928;-61
2023/07/11 06:46:38;;;;;;;1.13;0.67;;;;;;;25.87;60.48;95761.41;5091898;28;20981;-61
2023/07/11 06:49:06;;;;;;;0.50;0.40;;;;;;;26.07;58.19;95754.84;5092062;28;20433;-61
2023/07/11 06:51:34;;;;;;;0.40;0.40;;;;;;;26.43;57.11;95735.41;5091916;28;20801;-61
2023/07/11 06:54:02;;;;;;;1.37;0.77;;;;;;;26.61;57.28;95745.81;5091788;28;20968;-62
2023/07/11 06:56:32;;;;;;;1.07;1.03;;;;;;;26.76;56.35;95748.47;5091644;28;20948;-63
2023/07/11 06:59:01;;;;;;;1.37;0.60;;;;;;;26.88;56.50;95748.28;5091483;28;20525;-62
2023/07/11 07:01:29;;;;;;;0.63;0.63;;;;;;;26.86;54.11;95744.38;5091404;28;20436;-61
2023/07/11 07:04:07;;;;;;;0.70;0.67;;;;;;;27.29;52.58;95735.75;5092288;28;20894;-62
2023/07/11 07:06:35;;;;;;;0.73;0.57;;;;;;;27.82;51.73;95735.75;5065162;28;20464;-61
2023/07/11 07:09:04;;;;;;;0.60;0.40;;;;;;;27.73;51.41;95733.28;5091775;28;20440;-60
2023/07/11 07:11:35;;;;;;;0.80;0.80;;;;;;;27.78;51.64;95724.03;5092101;28;20501;-61
2023/07/11 07:14:06;;;;;;;0.60;0.50;;;;;;;27.06;52.23;95738.50;5091882;28;20472;-62
2023/07/11 07:16:35;;;;;;;1.30;1.27;;;;;;;27.60;52.73;95724.56;5091614;28;20444;-61
2023/07/11 07:19:04;;;;;;;0.80;0.77;;;;;;;27.65;52.06;95732.41;5091171;28;20428;-61
2023/07/11 07:21:34;;;;;;;8.63;1.80;;;;;;;27.81;51.48;95717.81;5091649;28;20437;-62
2023/07/11 07:24:02;;;;;;;6.60;1.30;;;;;;;27.26;52.14;95725.59;5091029;28;20466;-62
2023/07/11 07:26:31;;;;;;;0.50;0.47;;;;;;;27.47;51.15;95725.94;5091587;28;20523;-62
2023/07/11 07:28:59;;;;;;;0.50;0.50;;;;;;;27.82;51.38;95725.66;5091187;28;20943;-63
2023/07/11 07:31:29;;;;;;;2.20;2.10;;;;;;;27.07;52.21;95696.50;5091762;28;20554;-63
2023/07/11 07:33:58;;;;;;;0.67;0.67;;;;;;;28.20;51.54;95719.13;5091735;28;20468;-63
2023/07/11 07:36:26;;;;;;;1.07;0.50;;;;;;;28.41;50.81;95722.09;5091503;28;20441;-63
2023/07/11 07:38:56;;;;;;;1.47;1.37;;;;;;;27.92;51.36;95719.53;5091434;28;20827;-63
2023/07/11 07:41:27;;;;;;;1.13;1.13;;;;;;;28.09;52.66;95718.22;5091053;28;20493;-63
2023/07/11 07:43:55;;;;;;;0.87;0.63;;;;;;;28.39;53.19;95716.22;5066313;28;20462;-65
2023/07/11 07:46:23;;;;;;;0.70;0.60;;;;;;;28.70;51.07;95715.81;5090615;28;20441;-65
2023/07/11 07:48:52;;;;;;;0.40;0.33;;;;;;;28.44;48.95;95696.78;5090717;28;20507;-65
2023/07/11 07:51:21;;;;;;;1.37;0.60;;;;;;;29.30;49.12;95719.06;5095244;28;20510;-64
2023/07/11 07:53:49;;;;;;;1.10;0.90;;;;;;;28.79;48.36;95715.50;5095029;28;20501;-65
2023/07/11 07:56:20;;;;;;;0.60;0.60;;;;;;;29.25;48.56;95713.94;5095251;28;20432;-65
2023/07/11 07:58:50;;;;;;;0.77;0.70;;;;;;;29.43;48.17;95709.41;5094865;28;20983;-64
2023/07/11 08:01:21;;;;;;;0.70;0.70;;;;;;;29.42;47.52;95712.53;5095154;28;20800;-64
2023/07/11 08:03:49;;;;;;;0.70;0.60;;;;;;;29.97;46.92;95700.38;5094925;28;21077;-64
2023/07/11 08:06:19;;;;;;;4.40;0.90;;;;;;;29.94;45.74;95706.59;5094180;28;20424;-64
2023/07/11 08:08:49;;;;;;;0.93;0.93;;;;;;;29.51;46.81;95702.81;5095298;28;20475;-64
2023/07/11 08:11:20;;;;;;;0.80;0.73;;;;;;;29.81;47.68;95699.91;5112920;28;20424;-63
2023/07/11 08:13:49;;;;;;;2.93;1.20;;;;;;;28.93;46.79;95686.38;5098425;28;20488;-63
2023/07/11 08:16:27;;;;;;;0.73;0.73;;;;;;;30.10;47.02;95687.94;5094903;28;20475;-62
2023/07/11 08:19:04;;;;;;;0.60;0.50;;;;;;;29.43;45.95;95690.28;5094815;28;20441;-62
2023/07/11 08:21:35;;;;;;;2.87;1.73;;;;;;;30.42;46.34;95688.03;5094648;28;20440;-62
2023/07/11 08:24:06;;;;;;;0.70;0.50;;;;;;;30.25;45.02;95680.56;5094775;28;20460;-61
2023/07/11 08:26:37;;;;;;;1.07;1.07;;;;;;;29.90;45.81;95692.16;5094977;28;20490;-62
2023/07/11 08:29:05;;;;;;;0.73;0.70;;;;;;;29.90;46.15;95689.41;5094116;28;20497;-63
2023/07/11 08:31:56;;;;;;;1.10;1.00;;;;;;;30.58;46.68;95693.16;5094402;28;20951;-62
2023/07/11 08:34:24;;;;;;;0.43;0.37;;;;;;;31.40;43.17;95670.09;5094133;28;20486;-61
2023/07/11 08:36:53;;;;;;;0.43;0.40;;;;;;;31.99;43.81;95684.88;5094095;28;20483;-62
2023/07/11 08:39:21;;;;;;;0.70;0.70;;;;;;;31.05;43.86;95686.56;5094848;28;20466;-62
2023/07/11 08:41:52;;;;;;;1.90;0.83;;;;;;;31.36;44.16;95688.50;5094353;28;20440;-62
2023/07/11 08:44:30;;;;;;;1.70;1.60;;;;;;;31.33;44.21;95659.94;5094647;28;20874;-63
2023/07/11 08:47:04;;;;;;;0.80;0.80;;;;;;;31.49;44.05;95675.22;5093793;28;20500;-63
2023/07/11 08:49:38;;;;;;;0.93;0.93;;;;;;;31.53;43.12;95675.97;5094076;28;20442;-62
2023/07/11 08:52:10;;;;;;;0.60;0.60;;;;;;;32.03;42.56;95617.06;5093890;28;20440;-62
2023/07/11 08:54:56;;;;;;;1.90;0.50;;;;;;;32.93;41.79;95660.03;5094396;28;20463;-63
2023/07/11 08:57:29;;;;;;;0.90;0.90;;;;;;;32.94;40.61;95658.88;5094222;28;20485;-63
2023/07/11 09:00:07;;;;;;;0.40;0.30;;;;;;;33.08;40.39;95667.00;5092986;28;20525;-62
2023/07/11 09:02:43;;;;;;;1.17;1.07;;;;;;;33.33;39.56;95664.03;5093357;28;20435;-63
2023/07/11 09:05:19;;;;;;;0.50;0.40;;;;;;;33.25;37.68;95661.34;5094086;28;20466;-62
2023/07/11 09:07:47;;;;;;;0.50;0.43;;;;;;;33.34;39.83;95641.66;5093668;28;20535;-62
2023/07/11 09:10:39;;;;;;;0.57;0.57;;;;;;;33.13;38.07;95656.38;5093341;28;20466;-62
2023/07/11 09:13:29;;;;;;;0.50;0.43;;;;;;;33.37;40.98;95654.56;5093992;28;20537;-60
2023/07/11 09:16:05;;;;;;;1.27;1.17;;;;;;;32.82;39.24;95653.84;5093766;28;20435;-61
2023/07/11 09:18:45;;;;;;;0.60;0.60;;;;;;;33.32;37.68;95649.50;5093420;28;20436;-59
2023/07/11 09:21:18;;;;;;;0.40;0.40;;;;;;;34.02;36.61;95641.69;5066892;28;20439;-57
2023/07/11 09:23:57;;;;;;;1.03;0.90;;;;;;;33.53;39.72;95646.53;5092938;28;20441;-58
2023/07/11 09:26:47;;;;;;;0.50;0.50;;;;;;;34.15;41.15;95637.22;5093494;28;20565;-57
2023/07/11 09:29:19;;;;;;;0.60;0.60;;;;;;;34.23;41.70;95635.94;5093525;28;20933;-56
2023/07/11 09:31:54;;;;;;;0.50;0.43;;;;;;;34.49;39.68;95635.94;5093388;28;20444;-57
2023/07/11 09:34:27;;;;;;;0.63;0.63;;;;;;;33.37;39.15;95624.31;5092809;28;20443;-57
2023/07/11 09:36:57;;;;;;;0.60;0.43;;;;;;;34.28;39.14;95629.97;5093263;28;20432;-57
2023/07/11 09:39:34;;;;;;;0.60;0.43;;;;;;;35.03;36.88;95620.19;5093650;28;20467;-57
2023/07/11 09:42:09;;;;;;;0.60;0.40;;;;;;;35.30;36.23;95611.06;5093249;28;20500;-57
2023/07/11 09:44:39;;;;;;;0.70;0.70;;;;;;;35.92;36.98;95619.34;5093361;28;20806;-57
2023/07/11 09:47:17;;;;;;;0.83;0.83;;;;;;;35.39;38.70;95614.06;5067202;28;20788;-58
2023/07/11 09:49:48;;;;;;;0.70;0.70;;;;;;;34.89;37.72;95620.41;5092370;28;20470;-59
2023/07/11 09:52:26;;;;;;;0.93;0.60;;;;;;;34.58;39.51;95593.38;5084059;28;20448;-59
2023/07/11 09:54:56;;;;;;;0.50;0.40;;;;;;;33.73;38.41;95608.25;5090338;28;20439;-57
2023/07/11 09:57:37;;;;;;;0.40;0.40;;;;;;;34.16;37.67;95616.75;5079643;28;20234;-61
2023/07/11 10:00:13;;;;;;;0.57;0.40;;;;;;;35.44;38.68;95621.84;5065995;28;20493;-58
2023/07/11 10:02:46;;;;;;;1.00;0.70;;;;;;;34.37;39.10;95622.75;5092621;28;20443;-58
2023/07/11 10:05:16;;;;;;;0.57;0.57;;;;;;;34.66;40.82;95612.13;5092394;28;20193;-58
2023/07/11 10:07:44;;;;;;;0.50;0.40;;;;;;;34.21;40.72;95617.09;5092406;28;20185;-59
2023/07/11 10:10:15;;;;;;;1.10;1.10;;;;;;;34.59;37.85;95614.97;5092833;28;20284;-59
2023/07/11 10:12:45;;;;;;;1.93;1.03;;;;;;;33.90;38.94;95606.50;5090843;28;20197;-59
2023/07/11 10:15:18;;;;;;;0.50;0.40;;;;;;;34.92;34.96;95594.00;5092459;28;20443;-58
2023/07/11 10:17:46;;;;;;;2.87;0.60;;;;;;;35.22;34.90;95598.63;5091601;28;20528;-58
2023/07/11 10:20:18;;;;;;;0.50;0.50;;;;;;;35.96;34.31;95591.66;5092311;28;20410;-58
2023/07/11 10:22:50;;;;;;;0.60;0.50;;;;;;;35.62;37.47;95553.38;5092419;28;20559;-59
2023/07/11 10:25:21;;;;;;;3.07;0.60;;;;;;;35.57;38.15;95584.22;5092160;28;20201;-58
2023/07/11 10:27:53;;;;;;;1.00;1.00;;;;;;;34.74;37.54;95588.78;5092174;28;20690;-57
2023/07/11 10:30:28;;;;;;;0.57;0.57;;;;;;;34.78;37.26;95556.47;5092733;28;20588;-59
2023/07/11 10:32:59;;;;;;;0.40;0.37;;;;;;;35.85;37.13;95582.84;5092400;28;20197;-60
2023/07/11 10:35:40;;;;;;;0.57;0.57;;;;;;;37.25;35.54;95576.00;5091798;28;20185;-57
2023/07/11 10:38:18;;;;;;;2.83;1.03;;;;;;;35.53;37.75;95570.47;5091996;28;20197;-59
2023/07/11 10:40:51;;;;;;;0.80;0.50;;;;;;;35.51;36.24;95572.84;5068239;28;20197;-58
2023/07/11 10:43:26;;;;;;;1.35;0.60;;;;;;;35.10;36.12;95555.91;5091986;28;20618;-61
2023/07/11 10:46:01;;;;;;;0.90;0.90;;;;;;;35.02;34.43;95563.50;5092081;28;20201;-59
2023/07/11 10:48:39;;;;;;;1.25;1.15;;;;;;;35.77;34.84;95556.59;5091392;28;20704;-60
2023/07/11 10:51:10;;;;;;;0.60;0.40;;;;;;;36.86;33.23;95554.13;5091744;28;20200;-59
2023/07/11 10:53:42;;;;;;;0.60;0.60;;;;;;;36.24;35.06;95555.19;5092051;28;20193;-59
2023/07/11 10:56:16;;;;;;;0.40;0.30;;;;;;;36.54;35.55;95551.34;5091606;28;20197;-59
2023/07/11 10:58:48;;;;;;;0.50;0.40;;;;;;;36.73;35.95;95493.28;5091542;28;20582;-60
2023/07/11 11:01:28;;;;;;;1.20;1.20;;;;;;;36.61;34.67;95548.44;5091545;28;20201;-60
2023/07/11 11:04:09;;;;;;;1.40;0.93;;;;;;;35.79;34.19;95549.47;5091694;28;20322;-61
2023/07/11 11:06:53;;;;;;;0.70;0.60;;;;;;;36.13;34.72;95547.16;5065712;28;20255;-59
2023/07/11 11:09:29;;;;;;;0.70;0.70;;;;;;;36.15;32.57;95536.47;5091249;28;20238;-60
2023/07/11 11:12:11;;;;;;;0.43;0.43;;;;;;;36.35;33.65;95543.91;5092084;28;20232;-59
2023/07/11 11:14:44;;;;;;;0.40;0.40;;;;;;;36.70;32.52;95540.31;5091655;28;20186;-60
2023/07/11 11:17:30;;;;;;;0.50;0.50;;;;;;;36.66;32.23;95542.41;5091470;28;20661;-60
2023/07/11 11:20:12;;;;;;;2.90;0.50;;;;;;;36.82;34.52;95534.88;5092070;28;20248;-60
2023/07/11 11:22:53;;;;;;;0.60;0.55;;;;;;;35.99;32.48;95528.13;5091590;28;20194;-60
2023/07/11 11:25:27;;;;;;;0.50;0.50;;;;;;;36.89;33.70;95517.31;5095737;28;20197;-59
2023/07/11 11:28:14;;;;;;;0.98;0.98;;;;;;;37.58;29.89;95526.16;5095687;28;20193;-60
2023/07/11 11:30:51;;;;;;;0.68;0.40;;;;;;;38.10;30.57;95513.50;5094390;28;20266;-58
2023/07/11 11:33:38;;;;;;;0.30;0.30;;;;;;;37.55;30.88;95513.22;5096095;28;20575;-57
2023/07/11 11:36:18;;;;;;;0.60;0.60;;;;;;;36.17;31.29;95511.19;5073762;28;20576;-59
2023/07/11 11:38:58;;;;;;;0.75;0.75;;;;;;;35.28;32.60;95517.78;5095072;28;20185;-60
2023/07/11 11:41:35;;;;;;;0.70;0.70;;;;;;;35.88;30.71;95510.25;5095589;28;20579;-59
2023/07/11 11:44:11;;;;;;;0.50;0.30;;;;;;;36.79;31.16;95504.56;5071204;28;20246;-60
2023/07/11 11:46:44;;;;;;;0.40;0.30;;;;;;;38.01;29.70;95496.03;5095085;28;20239;-59
2023/07/11 11:49:25;;;;;;;0.70;0.70;;;;;;;36.68;30.65;95495.78;5095416;28;20670;-60
2023/07/11 11:51:57;;;;;;;0.60;0.45;;;;;;;38.15;30.64;95496.34;5095232;28;20280;-60